Peleus — V2FV2 — position and weather

sailwx.info

Track history (hours):
 
Tides and Currents Weather Stations Pressure Air Temp Water Temp Dewpoint Dewpoint Depression Visibility Wind Speed Wind Dir Waves Ship Positions

Peleus

Last reported at 2018-Apr-26 23:00 UTC. Time now 2018-Apr-26 23:17 UTC.
Position N 53°12' E 008°31'.

Length 88 m; draft 5.5 m.

Type: Ship. MMSI: 305810000.

Date/timePositionNaut miles runAvg speedWind from/ knotsBaromVisibWave heightAir tempDewpointWater temp
2018-Apr-26 23:00N 53°12' E 008°31'5 9.1
2018-Apr-26 22:31N 53°10' E 008°37'4 8.2
2018-Apr-26 22:00N 53°07' E 008°42'0 0.4
2018-Apr-26 21:30N 53°07' E 008°43'0 0.6
2018-Apr-26 20:59N 53°07' E 008°43'0 0.0
2018-Apr-26 20:29N 53°07' E 008°43'0 0.0
2018-Apr-26 19:59N 53°07' E 008°43'0 0.0
2018-Apr-26 19:29N 53°07' E 008°43'0 0.0
2018-Apr-26 18:59N 53°07' E 008°43'0 0.0
2018-Apr-26 18:29N 53°07' E 008°43'0 0.0
2018-Apr-26 17:59N 53°07' E 008°43'0 0.0
2018-Apr-26 17:29N 53°07' E 008°43'0 0.0
2018-Apr-26 16:59N 53°07' E 008°43'0 0.0
2018-Apr-26 16:29N 53°07' E 008°43'0 0.0
2018-Apr-26 15:59N 53°07' E 008°43'0 0.0
2018-Apr-26 15:29N 53°07' E 008°43'0 0.0
2018-Apr-26 14:59N 53°07' E 008°43'0 0.0
2018-Apr-26 14:29N 53°07' E 008°43'0 0.0
2018-Apr-26 13:59N 53°07' E 008°43'0 0.0
2018-Apr-26 13:29N 53°07' E 008°43'0 0.0
2018-Apr-26 12:59N 53°07' E 008°43'0 0.0
2018-Apr-26 12:29N 53°07' E 008°43'0 0.0
2018-Apr-26 11:59N 53°07' E 008°43'0 0.0
2018-Apr-26 11:29N 53°07' E 008°43'0 0.0
2018-Apr-26 10:59N 53°07' E 008°43'0 0.0
2018-Apr-26 10:29N 53°07' E 008°43'0 0.0
2018-Apr-26 10:00N 53°07' E 008°43'0 0.0
2018-Apr-26 09:29N 53°07' E 008°43'0 0.0
2018-Apr-26 08:59N 53°07' E 008°43'0 0.0
2018-Apr-26 08:29N 53°07' E 008°43'0 0.0
2018-Apr-26 07:59N 53°07' E 008°43'0 0.0
2018-Apr-26 07:29N 53°07' E 008°43'0 0.0
2018-Apr-26 06:59N 53°07' E 008°43'0 0.0
2018-Apr-26 06:29N 53°07' E 008°43'0 0.0
2018-Apr-26 05:59N 53°07' E 008°43'0 0.0
2018-Apr-26 05:29N 53°07' E 008°43'0 0.0
2018-Apr-26 04:59N 53°07' E 008°43'0 0.0
2018-Apr-26 04:29N 53°07' E 008°43'0 0.0
2018-Apr-26 03:59N 53°07' E 008°43'0 0.0
2018-Apr-26 03:29N 53°07' E 008°43'0 0.0
2018-Apr-26 02:59N 53°07' E 008°43'0 0.0
2018-Apr-26 02:29N 53°07' E 008°43'0 0.0
2018-Apr-26 01:59N 53°07' E 008°43'0 0.0
2018-Apr-26 01:29N 53°07' E 008°43'0 0.0
2018-Apr-26 00:59N 53°07' E 008°43'0 0.0
2018-Apr-26 00:29N 53°07' E 008°43'0 0.0
2018-Apr-25 23:59N 53°07' E 008°43'0 0.0
2018-Apr-25 23:29N 53°07' E 008°43'0 0.0
2018-Apr-25 22:59N 53°07' E 008°43'0 0.0
2018-Apr-25 22:29N 53°07' E 008°43'0 0.0
2018-Apr-25 21:59N 53°07' E 008°43'0 0.0
2018-Apr-25 21:29N 53°07' E 008°43'0 0.0
2018-Apr-25 20:59N 53°07' E 008°43'0 0.0
2018-Apr-25 20:29N 53°07' E 008°43'0 0.0
2018-Apr-25 19:59N 53°07' E 008°43'0 0.0
2018-Apr-25 19:29N 53°07' E 008°43'0 0.2
2018-Apr-25 19:00N 53°08' E 008°43'0 1.0
2018-Apr-25 18:30N 53°07' E 008°43'0 0.1
2018-Apr-25 18:00N 53°07' E 008°42'3 5.3
2018-Apr-25 17:30N 53°08' E 008°38'5 9.1
2018-Apr-25 17:00N 53°11' E 008°33'510.4
2018-Apr-25 16:30N 53°16' E 008°29'510.3
2018-Apr-25 16:00N 53°21' E 008°30'510.7
2018-Apr-25 15:30N 53°26' E 008°29'5 9.6
2018-Apr-25 15:00N 53°31' E 008°32'4 7.8
2018-Apr-25 14:30N 53°35' E 008°32'510.0
2018-Apr-25 14:00N 53°38' E 008°26'5 9.3
2018-Apr-25 13:30N 53°42' E 008°20'5 9.4
2018-Apr-25 13:00N 53°44' E 008°14'5 9.2
2018-Apr-25 12:30N 53°48' E 008°08'5 9.4
2018-Apr-25 12:00N 53°51' E 008°02'9210.5
2018-Apr-25 03:14N 53°34' E 005°30'311.3
2018-Apr-25 03:00N 53°33' E 005°26'611.2
2018-Apr-25 02:30N 53°31' E 005°17'611.2
2018-Apr-25 02:01N 53°29' E 005°08'611.3
2018-Apr-25 01:30N 53°27' E 004°59'611.8
2018-Apr-25 01:01N 53°25' E 004°50'610.9
2018-Apr-25 00:29N 53°22' E 004°42'612.0
2018-Apr-24 23:59N 53°17' E 004°37'611.7
2018-Apr-24 23:30N 53°12' E 004°33'611.9
2018-Apr-24 23:00N 53°07' E 004°28'611.9
2018-Apr-24 22:30N 53°01' E 004°23'611.7
2018-Apr-24 22:01N 52°56' E 004°19'610.9
2018-Apr-24 21:29N 52°51' E 004°14'5 9.3
2018-Apr-24 20:59N 52°47' E 004°11'8 9.1
2018-Apr-24 20:07N 52°40' E 004°05'1 9.3
2018-Apr-24 19:59N 52°39' E 004°04'5 9.2
2018-Apr-24 19:27N 52°35' E 003°59'4 9.1
2018-Apr-24 19:00N 52°31' E 003°56'5 9.1
2018-Apr-24 18:30N 52°27' E 003°54'5 9.4
2018-Apr-24 18:01N 52°22' E 003°53'510.1
2018-Apr-24 17:30N 52°17' E 003°52'510.2
2018-Apr-24 17:00N 52°12' E 003°54'510.2
2018-Apr-24 16:30N 52°07' E 003°55'5 9.8
2018-Apr-24 16:00N 52°02' E 003°55'510.3
2018-Apr-24 15:30N 51°60' E 004°02'612.6
2018-Apr-24 15:00N 51°57' E 004°11'612.5
2018-Apr-24 14:31N 51°53' E 004°19'5 9.2
2018-Apr-24 14:00N 51°51' E 004°25'510.6
2018-Apr-24 13:31N 51°50' E 004°33'4 8.8
2018-Apr-24 13:00N 51°46' E 004°38'4 8.9
2018-Apr-24 12:30N 51°42' E 004°37'0 0.1
2018-Apr-24 11:56N 51°42' E 004°37'0 0.0
2018-Apr-24 11:26N 51°42' E 004°37'0 0.0
2018-Apr-24 10:59N 51°42' E 004°37'0 0.0
2018-Apr-24 10:29N 51°42' E 004°37'0 0.0
2018-Apr-24 09:59N 51°42' E 004°37'0 0.0
2018-Apr-24 09:26N 51°42' E 004°37'0 0.0
2018-Apr-24 08:59N 51°42' E 004°37'0 0.0
2018-Apr-24 08:29N 51°42' E 004°37'0 0.0
2018-Apr-24 07:59N 51°42' E 004°37'0 0.0
2018-Apr-24 07:26N 51°42' E 004°37'0 0.0
2018-Apr-24 06:59N 51°42' E 004°37'0 0.0
2018-Apr-24 06:29N 51°42' E 004°37'0 0.0
2018-Apr-24 05:59N 51°42' E 004°37'0 0.0
2018-Apr-24 05:29N 51°42' E 004°37'0 0.0
2018-Apr-24 04:59N 51°42' E 004°37'0 0.0
2018-Apr-24 04:29N 51°42' E 004°37'0 0.0
2018-Apr-24 03:59N 51°42' E 004°37'0 0.0
2018-Apr-24 03:29N 51°42' E 004°37'0 0.0
2018-Apr-24 02:59N 51°42' E 004°37'0 0.0
2018-Apr-24 02:29N 51°42' E 004°37'0 0.0
2018-Apr-24 01:59N 51°42' E 004°37'0 0.0
2018-Apr-24 01:23N 51°42' E 004°37'0 0.0
2018-Apr-24 00:59N 51°42' E 004°37'0 0.0
2018-Apr-24 00:29N 51°42' E 004°37'0 0.0
2018-Apr-23 23:59N 51°42' E 004°37'0 0.0
2018-Apr-23 23:26N 51°42' E 004°37'0 0.0
2018-Apr-23 22:59N 51°42' E 004°37'0 0.0
2018-Apr-23 22:26N 51°42' E 004°37'0 0.0
2018-Apr-23 21:59N 51°42' E 004°37'0 0.0
2018-Apr-23 21:26N 51°42' E 004°37'0 0.0
2018-Apr-23 20:59N 51°42' E 004°37'0 0.0
2018-Apr-23 20:29N 51°42' E 004°37'0 0.0
2018-Apr-23 19:56N 51°42' E 004°37'0 0.0
2018-Apr-23 19:29N 51°42' E 004°37'0 0.0
2018-Apr-23 18:56N 51°42' E 004°37'0 0.0
2018-Apr-23 18:29N 51°42' E 004°37'0 0.0
2018-Apr-23 17:59N 51°42' E 004°37'0 0.0
2018-Apr-23 17:26N 51°42' E 004°37'0 0.0
2018-Apr-23 16:59N 51°42' E 004°37'0 0.0
2018-Apr-23 16:29N 51°42' E 004°37'0 0.0
2018-Apr-23 15:59N 51°42' E 004°37'0 0.0
2018-Apr-23 15:29N 51°42' E 004°37'0 0.0
2018-Apr-23 14:56N 51°42' E 004°37'0 0.0
2018-Apr-23 14:29N 51°42' E 004°37'0 0.0
2018-Apr-23 13:56N 51°42' E 004°37'0 0.0
2018-Apr-23 13:26N 51°42' E 004°37'0 0.0
2018-Apr-23 12:59N 51°42' E 004°37'0 0.0
2018-Apr-23 12:29N 51°42' E 004°37'0 0.0
2018-Apr-23 11:59N 51°42' E 004°37'0 0.0
2018-Apr-23 11:29N 51°42' E 004°37'0 0.0
2018-Apr-23 10:59N 51°42' E 004°37'0 0.0
2018-Apr-23 10:26N 51°42' E 004°37'0 0.0
2018-Apr-23 09:59N 51°42' E 004°37'0 0.0
2018-Apr-23 09:29N 51°42' E 004°37'0 0.0
2018-Apr-23 08:59N 51°42' E 004°37'0 0.0
2018-Apr-23 08:26N 51°42' E 004°37'0 0.0
2018-Apr-23 07:59N 51°42' E 004°37'0 0.0
2018-Apr-23 07:29N 51°42' E 004°37'0 0.0
2018-Apr-23 06:59N 51°42' E 004°37'0 0.0
2018-Apr-23 06:23N 51°42' E 004°37'0 0.0
2018-Apr-23 05:59N 51°42' E 004°37'0 0.0
2018-Apr-23 05:29N 51°42' E 004°37'0 0.0
2018-Apr-23 04:59N 51°42' E 004°37'0 0.0
2018-Apr-23 04:29N 51°42' E 004°37'0 0.0
2018-Apr-23 03:59N 51°42' E 004°37'0 0.0
2018-Apr-23 03:29N 51°42' E 004°37'0 0.0
2018-Apr-23 02:59N 51°42' E 004°37'0 0.0
2018-Apr-23 02:29N 51°42' E 004°37'0 0.0
2018-Apr-23 01:59N 51°42' E 004°37'0 0.0
2018-Apr-23 01:29N 51°42' E 004°37'0 0.0
2018-Apr-23 00:59N 51°42' E 004°37'0 0.0
2018-Apr-23 00:29N 51°42' E 004°37'0 0.0
2018-Apr-22 23:59N 51°42' E 004°37'0 0.0
2018-Apr-22 23:29N 51°42' E 004°37'0 0.0
2018-Apr-22 22:59N 51°42' E 004°37'0 0.0
2018-Apr-22 22:29N 51°42' E 004°37'0 0.0
2018-Apr-22 21:56N 51°42' E 004°37'0 0.0
2018-Apr-22 21:29N 51°42' E 004°37'0 0.0
2018-Apr-22 20:59N 51°42' E 004°37'0 0.0
2018-Apr-22 20:29N 51°42' E 004°37'0 0.0
2018-Apr-22 19:59N 51°42' E 004°37'0 0.0
2018-Apr-22 19:29N 51°42' E 004°37'0 0.0
2018-Apr-22 18:59N 51°42' E 004°37'0 0.0
2018-Apr-22 18:29N 51°42' E 004°37'0 0.0
2018-Apr-22 17:59N 51°42' E 004°37'0 0.0
2018-Apr-22 17:26N 51°42' E 004°37'0 0.0
2018-Apr-22 16:59N 51°42' E 004°37'0 0.0
2018-Apr-22 16:26N 51°42' E 004°37'0 0.0
2018-Apr-22 15:59N 51°42' E 004°37'0 0.0
2018-Apr-22 15:26N 51°42' E 004°37'0 0.0
2018-Apr-22 14:59N 51°42' E 004°37'0 0.0
2018-Apr-22 14:29N 51°42' E 004°37'0 0.0
2018-Apr-22 13:56N 51°42' E 004°37'0 0.0
2018-Apr-22 13:17N 51°42' E 004°37'0 0.0
2018-Apr-22 12:59N 51°42' E 004°37'0 0.0
2018-Apr-22 12:29N 51°42' E 004°37'0 0.0
2018-Apr-22 11:59N 51°42' E 004°37'0 0.0
2018-Apr-22 11:29N 51°42' E 004°37'0 0.0
2018-Apr-22 10:56N 51°42' E 004°37'0 0.0
2018-Apr-22 10:26N 51°42' E 004°37'0 0.0
2018-Apr-22 09:59N 51°42' E 004°37'0 0.0
2018-Apr-22 09:26N 51°42' E 004°37'0 0.0
2018-Apr-22 08:59N 51°42' E 004°37'0 0.0
2018-Apr-22 08:29N 51°42' E 004°37'0 0.0
2018-Apr-22 07:56N 51°42' E 004°37'0 0.0
2018-Apr-22 07:20N 51°42' E 004°37'0 0.0
2018-Apr-22 06:56N 51°42' E 004°37'0 0.0
2018-Apr-22 06:29N 51°42' E 004°37'0 0.0
2018-Apr-22 05:59N 51°42' E 004°37'0 0.0
2018-Apr-22 05:29N 51°42' E 004°37'0 0.0
2018-Apr-22 04:59N 51°42' E 004°37'0 0.0
2018-Apr-22 04:29N 51°42' E 004°37'0 0.0
2018-Apr-22 03:59N 51°42' E 004°37'0 0.0
2018-Apr-22 03:29N 51°42' E 004°37'0 0.0
2018-Apr-22 02:56N 51°42' E 004°37'0 0.0
2018-Apr-22 02:29N 51°42' E 004°37'0 0.0
2018-Apr-22 01:59N 51°42' E 004°37'0 0.0
2018-Apr-22 01:29N 51°42' E 004°37'0 0.0
2018-Apr-22 00:56N 51°42' E 004°37'0 0.0
2018-Apr-22 00:29N 51°42' E 004°37'0 0.0
2018-Apr-21 23:56N 51°42' E 004°37'0 0.0
2018-Apr-21 23:29N 51°42' E 004°37'0 0.0
2018-Apr-21 22:59N 51°42' E 004°37'0 0.0
2018-Apr-21 22:29N 51°42' E 004°37'0 0.0
2018-Apr-21 21:59N 51°42' E 004°37'0 0.0
2018-Apr-21 21:26N 51°42' E 004°37'0 0.0
2018-Apr-21 20:59N 51°42' E 004°37'0 0.0
2018-Apr-21 20:29N 51°42' E 004°37'0 0.0
2018-Apr-21 19:59N 51°42' E 004°37'0 0.0
2018-Apr-21 19:29N 51°42' E 004°37'0 0.0
2018-Apr-21 18:59N 51°42' E 004°37'0 0.0
2018-Apr-21 18:26N 51°42' E 004°37'0 0.0
2018-Apr-21 17:59N 51°42' E 004°37'0 0.0
2018-Apr-21 17:26N 51°42' E 004°37'0 0.0
2018-Apr-21 16:59N 51°42' E 004°37'0 0.0
2018-Apr-21 16:29N 51°42' E 004°37'0 0.0
2018-Apr-21 15:56N 51°42' E 004°37'0 0.0
2018-Apr-21 15:29N 51°42' E 004°37'0 0.0
2018-Apr-21 14:59N 51°42' E 004°37'0 0.0
2018-Apr-21 14:29N 51°42' E 004°37'0 0.0
2018-Apr-21 13:59N 51°42' E 004°37'0 0.0
2018-Apr-21 13:26N 51°42' E 004°37'0 0.0
2018-Apr-21 12:59N 51°42' E 004°37'0 0.0
2018-Apr-21 12:29N 51°42' E 004°37'0 0.0
2018-Apr-21 11:59N 51°42' E 004°37'0 0.0
2018-Apr-21 11:20N 51°42' E 004°37'0 0.3
2018-Apr-21 10:59N 51°42' E 004°37'0 0.1
2018-Apr-21 10:26N 51°42' E 004°37'0 0.0
2018-Apr-21 09:50N 51°42' E 004°37'0 0.0
2018-Apr-21 09:05N 51°42' E 004°37'0 0.0
2018-Apr-21 08:50N 51°42' E 004°37'0 0.0
2018-Apr-21 08:23N 51°42' E 004°37'0 0.0
2018-Apr-21 07:59N 51°42' E 004°37'0 0.0
2018-Apr-21 07:29N 51°42' E 004°37'0 0.0
2018-Apr-21 06:59N 51°42' E 004°37'0 0.0
2018-Apr-21 06:26N 51°42' E 004°37'0 0.0
2018-Apr-21 05:44N 51°42' E 004°37'0 0.0
2018-Apr-21 05:29N 51°42' E 004°37'0 0.0
2018-Apr-21 04:59N 51°42' E 004°37'0 0.0
2018-Apr-21 03:17N 51°42' E 004°37'0 0.0
2018-Apr-21 02:59N 51°42' E 004°37'0 0.0
2018-Apr-21 01:32N 51°42' E 004°37'0 0.0
2018-Apr-21 01:29N 51°42' E 004°37'0 0.0
2018-Apr-21 00:53N 51°42' E 004°37'0 0.0
2018-Apr-21 00:29N 51°42' E 004°37'0 0.0
2018-Apr-20 23:53N 51°42' E 004°37'0 0.0
2018-Apr-20 23:29N 51°42' E 004°37'0 0.0
2018-Apr-20 22:50N 51°42' E 004°37'0 0.0
2018-Apr-20 22:20N 51°42' E 004°37'0 0.0
2018-Apr-20 21:59N 51°42' E 004°37'0 0.0
2018-Apr-20 21:29N 51°42' E 004°37'0 0.0
2018-Apr-20 20:56N 51°42' E 004°37'0 0.0
2018-Apr-20 20:29N 51°42' E 004°37'0 0.0
2018-Apr-20 19:53N 51°42' E 004°37'0 0.0
2018-Apr-20 19:20N 51°42' E 004°37'0 0.0
2018-Apr-20 18:59N 51°42' E 004°37'0 0.0
2018-Apr-20 18:23N 51°42' E 004°37'0 0.0
2018-Apr-20 17:53N 51°42' E 004°37'0 0.0
2018-Apr-20 17:29N 51°42' E 004°37'0 0.0
2018-Apr-20 16:59N 51°42' E 004°37'0 0.0
2018-Apr-20 16:29N 51°42' E 004°37'0 0.0
2018-Apr-20 15:56N 51°42' E 004°37'0 0.0
2018-Apr-20 15:17N 51°42' E 004°37'0 0.0
2018-Apr-20 14:53N 51°42' E 004°37'0 0.0
2018-Apr-20 14:29N 51°42' E 004°37'0 0.0
2018-Apr-20 13:59N 51°42' E 004°37'1 2.4
2018-Apr-20 13:31N 51°43' E 004°37'4 7.3
2018-Apr-20 13:00N 51°46' E 004°38'3 6.6
2018-Apr-20 12:31N 51°49' E 004°34'3 6.8
2018-Apr-20 12:00N 51°50' E 004°29'4 7.5
2018-Apr-20 11:31N 51°51' E 004°23'3 6.7
2018-Apr-20 11:00N 51°53' E 004°19'3 6.9
2018-Apr-20 10:31N 51°55' E 004°15'3 7.0
2018-Apr-20 10:00N 51°57' E 004°10'3 6.5
2018-Apr-20 09:30N 51°59' E 004°06'4 7.8
2018-Apr-20 09:00N 51°60' E 003°60'4 9.0
2018-Apr-20 08:31N 52°01' E 003°52'3 6.7
2018-Apr-20 08:00N 52°00' E 003°47'3 6.3
2018-Apr-20 07:30N 51°59' E 003°42'12 6.5
2018-Apr-20 05:42N 51°55' E 003°24'7 6.5
2018-Apr-20 04:33N 51°53' E 003°13'3 6.7
2018-Apr-20 04:08N 51°52' E 003°09'2 6.8
2018-Apr-20 03:52N 51°51' E 003°06'3 6.8
2018-Apr-20 03:30N 51°51' E 003°02'9 6.8
2018-Apr-20 02:13N 51°48' E 002°49'1 6.6
2018-Apr-20 01:59N 51°47' E 002°46'3 6.4
2018-Apr-20 01:30N 51°46' E 002°42'4 6.1
2018-Apr-20 00:48N 51°44' E 002°36'2 6.5
2018-Apr-20 00:28N 51°42' E 002°34'4 6.2
2018-Apr-19 23:48N 51°39' E 002°29'2 6.0
2018-Apr-19 23:30N 51°38' E 002°27'3 5.8
2018-Apr-19 22:58N 51°35' E 002°24'3 5.6
2018-Apr-19 22:30N 51°34' E 002°21'3 5.6
2018-Apr-19 22:00N 51°32' E 002°18'3 5.3
2018-Apr-19 21:30N 51°29' E 002°15'3 6.0
2018-Apr-19 21:00N 51°27' E 002°13'3 6.4
2018-Apr-19 20:30N 51°24' E 002°11'3 6.9
2018-Apr-19 20:00N 51°21' E 002°09'4 7.8
2018-Apr-19 19:30N 51°17' E 002°06'4 7.8
2018-Apr-19 19:00N 51°14' E 002°03'4 8.6
2018-Apr-19 18:30N 51°11' E 001°57'5 9.3
2018-Apr-19 17:59N 51°08' E 001°51'5 9.9
2018-Apr-19 17:30N 51°05' E 001°46'810.6
2018-Apr-19 16:47N 50°59' E 001°38'711.2
2018-Apr-19 16:09N 50°54' E 001°30'212.2
2018-Apr-19 16:00N 50°53' E 001°29'712.2
2018-Apr-19 15:24N 50°46' E 001°24'511.6
2018-Apr-19 15:00N 50°41' E 001°22'510.8
2018-Apr-19 14:30N 50°38' E 001°16'610.9
2018-Apr-19 13:59N 50°34' E 001°09'4411.1
2018-Apr-19 09:59N 50°18' E 000°04'511.5
2018-Apr-19 09:30N 50°17' W 000°05'510.4
2018-Apr-19 09:00N 50°15' W 000°12'611.2
2018-Apr-19 08:31N 50°14' W 000°21'510.7
2018-Apr-19 08:01N 50°13' W 000°29'5 9.9
2018-Apr-19 07:30N 50°11' W 000°36'5 9.4
2018-Apr-19 07:01N 50°10' W 000°43'4 8.6
2018-Apr-19 06:30N 50°09' W 000°50'4 8.0
2018-Apr-19 06:01N 50°08' W 000°56'4 7.4
2018-Apr-19 05:30N 50°07' W 001°01'3 6.8
2018-Apr-19 05:00N 50°06' W 001°07'3 6.2
2018-Apr-19 04:30N 50°06' W 001°11'3 6.1
2018-Apr-19 04:00N 50°05' W 001°16'3 5.9
2018-Apr-19 03:30N 50°04' W 001°20'3 5.7
2018-Apr-19 03:00N 50°03' W 001°25'3 6.4
2018-Apr-19 02:30N 50°02' W 001°29'3 7.0
2018-Apr-19 02:00N 50°01' W 001°35'4 7.9
2018-Apr-19 01:30N 50°00' W 001°41'4 8.6
2018-Apr-19 01:00N 49°59' W 001°47'5 9.5
2018-Apr-19 00:30N 49°58' W 001°54'510.4
2018-Apr-19 00:00N 49°57' W 002°02'611.4
2018-Apr-18 23:30N 49°55' W 002°10'611.7
2018-Apr-18 22:59N 49°54' W 002°20'611.9
2018-Apr-18 22:30N 49°52' W 002°28'611.7
2018-Apr-18 21:59N 49°51' W 002°37'611.6
2018-Apr-18 21:30N 49°49' W 002°46'2511.4
2018-Apr-18 19:18N 49°37' W 003°19'311.2
2018-Apr-18 19:00N 49°35' W 003°24'80 8.5
2018-Apr-18 09:38N 48°55' W 005°10'6 7.4
2018-Apr-18 08:53N 48°52' W 005°17'8 8.2
2018-Apr-18 07:59N 48°48' W 005°27'9 8.7
2018-Apr-18 06:59N 48°43' W 005°37'10 9.7
2018-Apr-18 05:58N 48°34' W 005°44'10 9.5
2018-Apr-18 04:59N 48°25' W 005°47'1010.0
2018-Apr-18 03:58N 48°15' W 005°48'1010.0
2018-Apr-18 02:58N 48°05' W 005°49'10 9.9
2018-Apr-18 01:59N 47°55' W 005°49'9 9.5
2018-Apr-18 00:59N 47°46' W 005°50'9 9.1
2018-Apr-17 23:58N 47°37' W 005°50'  
Track history (hours):
 
Tides and Currents Weather Stations Pressure Air Temp Water Temp Dewpoint Dewpoint Depression Visibility Wind Speed Wind Dir Waves Ship Positions

Peleus

Last reported at 2018-Apr-26 23:00 UTC. Time now 2018-Apr-26 23:17 UTC.
Position N 53°12' E 008°31'.

Length 88 m; draft 5.5 m.

Type: Ship. MMSI: 305810000.

Date/timePositionNaut miles runAvg speedWind from/ knotsBaromVisibWave heightAir tempDewpointWater temp
2018-Apr-26 23:00N 53°12' E 008°31'5 9.1
2018-Apr-26 22:31N 53°10' E 008°37'4 8.2
2018-Apr-26 22:00N 53°07' E 008°42'0 0.4
2018-Apr-26 21:30N 53°07' E 008°43'0 0.6
2018-Apr-26 20:59N 53°07' E 008°43'0 0.0
2018-Apr-26 20:29N 53°07' E 008°43'0 0.0
2018-Apr-26 19:59N 53°07' E 008°43'0 0.0
2018-Apr-26 19:29N 53°07' E 008°43'0 0.0
2018-Apr-26 18:59N 53°07' E 008°43'0 0.0
2018-Apr-26 18:29N 53°07' E 008°43'0 0.0
2018-Apr-26 17:59N 53°07' E 008°43'0 0.0
2018-Apr-26 17:29N 53°07' E 008°43'0 0.0
2018-Apr-26 16:59N 53°07' E 008°43'0 0.0
2018-Apr-26 16:29N 53°07' E 008°43'0 0.0
2018-Apr-26 15:59N 53°07' E 008°43'0 0.0
2018-Apr-26 15:29N 53°07' E 008°43'0 0.0
2018-Apr-26 14:59N 53°07' E 008°43'0 0.0
2018-Apr-26 14:29N 53°07' E 008°43'0 0.0
2018-Apr-26 13:59N 53°07' E 008°43'0 0.0
2018-Apr-26 13:29N 53°07' E 008°43'0 0.0
2018-Apr-26 12:59N 53°07' E 008°43'0 0.0
2018-Apr-26 12:29N 53°07' E 008°43'0 0.0
2018-Apr-26 11:59N 53°07' E 008°43'0 0.0
2018-Apr-26 11:29N 53°07' E 008°43'0 0.0
2018-Apr-26 10:59N 53°07' E 008°43'0 0.0
2018-Apr-26 10:29N 53°07' E 008°43'0 0.0
2018-Apr-26 10:00N 53°07' E 008°43'0 0.0
2018-Apr-26 09:29N 53°07' E 008°43'0 0.0
2018-Apr-26 08:59N 53°07' E 008°43'0 0.0
2018-Apr-26 08:29N 53°07' E 008°43'0 0.0
2018-Apr-26 07:59N 53°07' E 008°43'0 0.0
2018-Apr-26 07:29N 53°07' E 008°43'0 0.0
2018-Apr-26 06:59N 53°07' E 008°43'0 0.0
2018-Apr-26 06:29N 53°07' E 008°43'0 0.0
2018-Apr-26 05:59N 53°07' E 008°43'0 0.0
2018-Apr-26 05:29N 53°07' E 008°43'0 0.0
2018-Apr-26 04:59N 53°07' E 008°43'0 0.0
2018-Apr-26 04:29N 53°07' E 008°43'0 0.0
2018-Apr-26 03:59N 53°07' E 008°43'0 0.0
2018-Apr-26 03:29N 53°07' E 008°43'0 0.0
2018-Apr-26 02:59N 53°07' E 008°43'0 0.0
2018-Apr-26 02:29N 53°07' E 008°43'0 0.0
2018-Apr-26 01:59N 53°07' E 008°43'0 0.0
2018-Apr-26 01:29N 53°07' E 008°43'0 0.0
2018-Apr-26 00:59N 53°07' E 008°43'0 0.0
2018-Apr-26 00:29N 53°07' E 008°43'0 0.0
2018-Apr-25 23:59N 53°07' E 008°43'0 0.0
2018-Apr-25 23:29N 53°07' E 008°43'0 0.0
2018-Apr-25 22:59N 53°07' E 008°43'0 0.0
2018-Apr-25 22:29N 53°07' E 008°43'0 0.0
2018-Apr-25 21:59N 53°07' E 008°43'0 0.0
2018-Apr-25 21:29N 53°07' E 008°43'0 0.0
2018-Apr-25 20:59N 53°07' E 008°43'0 0.0
2018-Apr-25 20:29N 53°07' E 008°43'0 0.0
2018-Apr-25 19:59N 53°07' E 008°43'0 0.0
2018-Apr-25 19:29N 53°07' E 008°43'0 0.2
2018-Apr-25 19:00N 53°08' E 008°43'0 1.0
2018-Apr-25 18:30N 53°07' E 008°43'0 0.1
2018-Apr-25 18:00N 53°07' E 008°42'3 5.3
2018-Apr-25 17:30N 53°08' E 008°38'5 9.1
2018-Apr-25 17:00N 53°11' E 008°33'510.4
2018-Apr-25 16:30N 53°16' E 008°29'510.3
2018-Apr-25 16:00N 53°21' E 008°30'510.7
2018-Apr-25 15:30N 53°26' E 008°29'5 9.6
2018-Apr-25 15:00N 53°31' E 008°32'4 7.8
2018-Apr-25 14:30N 53°35' E 008°32'510.0
2018-Apr-25 14:00N 53°38' E 008°26'5 9.3
2018-Apr-25 13:30N 53°42' E 008°20'5 9.4
2018-Apr-25 13:00N 53°44' E 008°14'5 9.2
2018-Apr-25 12:30N 53°48' E 008°08'5 9.4
2018-Apr-25 12:00N 53°51' E 008°02'9210.5
2018-Apr-25 03:14N 53°34' E 005°30'311.3
2018-Apr-25 03:00N 53°33' E 005°26'611.2
2018-Apr-25 02:30N 53°31' E 005°17'611.2
2018-Apr-25 02:01N 53°29' E 005°08'611.3
2018-Apr-25 01:30N 53°27' E 004°59'611.8
2018-Apr-25 01:01N 53°25' E 004°50'610.9
2018-Apr-25 00:29N 53°22' E 004°42'612.0
2018-Apr-24 23:59N 53°17' E 004°37'611.7
2018-Apr-24 23:30N 53°12' E 004°33'611.9
2018-Apr-24 23:00N 53°07' E 004°28'611.9
2018-Apr-24 22:30N 53°01' E 004°23'611.7
2018-Apr-24 22:01N 52°56' E 004°19'610.9
2018-Apr-24 21:29N 52°51' E 004°14'5 9.3
2018-Apr-24 20:59N 52°47' E 004°11'8 9.1
2018-Apr-24 20:07N 52°40' E 004°05'1 9.3
2018-Apr-24 19:59N 52°39' E 004°04'5 9.2
2018-Apr-24 19:27N 52°35' E 003°59'4 9.1
2018-Apr-24 19:00N 52°31' E 003°56'5 9.1
2018-Apr-24 18:30N 52°27' E 003°54'5 9.4
2018-Apr-24 18:01N 52°22' E 003°53'510.1
2018-Apr-24 17:30N 52°17' E 003°52'510.2
2018-Apr-24 17:00N 52°12' E 003°54'510.2
2018-Apr-24 16:30N 52°07' E 003°55'5 9.8
2018-Apr-24 16:00N 52°02' E 003°55'510.3
2018-Apr-24 15:30N 51°60' E 004°02'612.6
2018-Apr-24 15:00N 51°57' E 004°11'612.5
2018-Apr-24 14:31N 51°53' E 004°19'5 9.2
2018-Apr-24 14:00N 51°51' E 004°25'510.6
2018-Apr-24 13:31N 51°50' E 004°33'4 8.8
2018-Apr-24 13:00N 51°46' E 004°38'4 8.9
2018-Apr-24 12:30N 51°42' E 004°37'0 0.1
2018-Apr-24 11:56N 51°42' E 004°37'0 0.0
2018-Apr-24 11:26N 51°42' E 004°37'0 0.0
2018-Apr-24 10:59N 51°42' E 004°37'0 0.0
2018-Apr-24 10:29N 51°42' E 004°37'0 0.0
2018-Apr-24 09:59N 51°42' E 004°37'0 0.0
2018-Apr-24 09:26N 51°42' E 004°37'0 0.0
2018-Apr-24 08:59N 51°42' E 004°37'0 0.0
2018-Apr-24 08:29N 51°42' E 004°37'0 0.0
2018-Apr-24 07:59N 51°42' E 004°37'0 0.0
2018-Apr-24 07:26N 51°42' E 004°37'0 0.0
2018-Apr-24 06:59N 51°42' E 004°37'0 0.0
2018-Apr-24 06:29N 51°42' E 004°37'0 0.0
2018-Apr-24 05:59N 51°42' E 004°37'0 0.0
2018-Apr-24 05:29N 51°42' E 004°37'0 0.0
2018-Apr-24 04:59N 51°42' E 004°37'0 0.0
2018-Apr-24 04:29N 51°42' E 004°37'0 0.0
2018-Apr-24 03:59N 51°42' E 004°37'0 0.0
2018-Apr-24 03:29N 51°42' E 004°37'0 0.0
2018-Apr-24 02:59N 51°42' E 004°37'0 0.0
2018-Apr-24 02:29N 51°42' E 004°37'0 0.0
2018-Apr-24 01:59N 51°42' E 004°37'0 0.0
2018-Apr-24 01:23N 51°42' E 004°37'0 0.0
2018-Apr-24 00:59N 51°42' E 004°37'0 0.0
2018-Apr-24 00:29N 51°42' E 004°37'0 0.0
2018-Apr-23 23:59N 51°42' E 004°37'0 0.0
2018-Apr-23 23:26N 51°42' E 004°37'0 0.0
2018-Apr-23 22:59N 51°42' E 004°37'0 0.0
2018-Apr-23 22:26N 51°42' E 004°37'0 0.0
2018-Apr-23 21:59N 51°42' E 004°37'0 0.0
2018-Apr-23 21:26N 51°42' E 004°37'0 0.0
2018-Apr-23 20:59N 51°42' E 004°37'0 0.0
2018-Apr-23 20:29N 51°42' E 004°37'0 0.0
2018-Apr-23 19:56N 51°42' E 004°37'0 0.0
2018-Apr-23 19:29N 51°42' E 004°37'0 0.0
2018-Apr-23 18:56N 51°42' E 004°37'0 0.0
2018-Apr-23 18:29N 51°42' E 004°37'0 0.0
2018-Apr-23 17:59N 51°42' E 004°37'0 0.0
2018-Apr-23 17:26N 51°42' E 004°37'0 0.0
2018-Apr-23 16:59N 51°42' E 004°37'0 0.0
2018-Apr-23 16:29N 51°42' E 004°37'0 0.0
2018-Apr-23 15:59N 51°42' E 004°37'0 0.0
2018-Apr-23 15:29N 51°42' E 004°37'0 0.0
2018-Apr-23 14:56N 51°42' E 004°37'0 0.0
2018-Apr-23 14:29N 51°42' E 004°37'0 0.0
2018-Apr-23 13:56N 51°42' E 004°37'0 0.0
2018-Apr-23 13:26N 51°42' E 004°37'0 0.0
2018-Apr-23 12:59N 51°42' E 004°37'0 0.0
2018-Apr-23 12:29N 51°42' E 004°37'0 0.0
2018-Apr-23 11:59N 51°42' E 004°37'0 0.0
2018-Apr-23 11:29N 51°42' E 004°37'0 0.0
2018-Apr-23 10:59N 51°42' E 004°37'0 0.0
2018-Apr-23 10:26N 51°42' E 004°37'0 0.0
2018-Apr-23 09:59N 51°42' E 004°37'0 0.0
2018-Apr-23 09:29N 51°42' E 004°37'0 0.0
2018-Apr-23 08:59N 51°42' E 004°37'0 0.0
2018-Apr-23 08:26N 51°42' E 004°37'0 0.0
2018-Apr-23 07:59N 51°42' E 004°37'0 0.0
2018-Apr-23 07:29N 51°42' E 004°37'0 0.0
2018-Apr-23 06:59N 51°42' E 004°37'0 0.0
2018-Apr-23 06:23N 51°42' E 004°37'0 0.0
2018-Apr-23 05:59N 51°42' E 004°37'0 0.0
2018-Apr-23 05:29N 51°42' E 004°37'0 0.0
2018-Apr-23 04:59N 51°42' E 004°37'0 0.0
2018-Apr-23 04:29N 51°42' E 004°37'0 0.0
2018-Apr-23 03:59N 51°42' E 004°37'0 0.0
2018-Apr-23 03:29N 51°42' E 004°37'0 0.0
2018-Apr-23 02:59N 51°42' E 004°37'0 0.0
2018-Apr-23 02:29N 51°42' E 004°37'0 0.0
2018-Apr-23 01:59N 51°42' E 004°37'0 0.0
2018-Apr-23 01:29N 51°42' E 004°37'0 0.0
2018-Apr-23 00:59N 51°42' E 004°37'0 0.0
2018-Apr-23 00:29N 51°42' E 004°37'0 0.0
2018-Apr-22 23:59N 51°42' E 004°37'0 0.0
2018-Apr-22 23:29N 51°42' E 004°37'0 0.0
2018-Apr-22 22:59N 51°42' E 004°37'0 0.0
2018-Apr-22 22:29N 51°42' E 004°37'0 0.0
2018-Apr-22 21:56N 51°42' E 004°37'0 0.0
2018-Apr-22 21:29N 51°42' E 004°37'0 0.0
2018-Apr-22 20:59N 51°42' E 004°37'0 0.0
2018-Apr-22 20:29N 51°42' E 004°37'0 0.0
2018-Apr-22 19:59N 51°42' E 004°37'0 0.0
2018-Apr-22 19:29N 51°42' E 004°37'0 0.0
2018-Apr-22 18:59N 51°42' E 004°37'0 0.0
2018-Apr-22 18:29N 51°42' E 004°37'0 0.0
2018-Apr-22 17:59N 51°42' E 004°37'0 0.0
2018-Apr-22 17:26N 51°42' E 004°37'0 0.0
2018-Apr-22 16:59N 51°42' E 004°37'0 0.0
2018-Apr-22 16:26N 51°42' E 004°37'0 0.0
2018-Apr-22 15:59N 51°42' E 004°37'0 0.0
2018-Apr-22 15:26N 51°42' E 004°37'0 0.0
2018-Apr-22 14:59N 51°42' E 004°37'0 0.0
2018-Apr-22 14:29N 51°42' E 004°37'0 0.0
2018-Apr-22 13:56N 51°42' E 004°37'0 0.0
2018-Apr-22 13:17N 51°42' E 004°37'0 0.0
2018-Apr-22 12:59N 51°42' E 004°37'0 0.0
2018-Apr-22 12:29N 51°42' E 004°37'0 0.0
2018-Apr-22 11:59N 51°42' E 004°37'0 0.0
2018-Apr-22 11:29N 51°42' E 004°37'0 0.0
2018-Apr-22 10:56N 51°42' E 004°37'0 0.0
2018-Apr-22 10:26N 51°42' E 004°37'0 0.0
2018-Apr-22 09:59N 51°42' E 004°37'0 0.0
2018-Apr-22 09:26N 51°42' E 004°37'0 0.0
2018-Apr-22 08:59N 51°42' E 004°37'0 0.0
2018-Apr-22 08:29N 51°42' E 004°37'0 0.0
2018-Apr-22 07:56N 51°42' E 004°37'0 0.0
2018-Apr-22 07:20N 51°42' E 004°37'0 0.0
2018-Apr-22 06:56N 51°42' E 004°37'0 0.0
2018-Apr-22 06:29N 51°42' E 004°37'0 0.0
2018-Apr-22 05:59N 51°42' E 004°37'0 0.0
2018-Apr-22 05:29N 51°42' E 004°37'0 0.0
2018-Apr-22 04:59N 51°42' E 004°37'0 0.0
2018-Apr-22 04:29N 51°42' E 004°37'0 0.0
2018-Apr-22 03:59N 51°42' E 004°37'0 0.0
2018-Apr-22 03:29N 51°42' E 004°37'0 0.0
2018-Apr-22 02:56N 51°42' E 004°37'0 0.0
2018-Apr-22 02:29N 51°42' E 004°37'0 0.0
2018-Apr-22 01:59N 51°42' E 004°37'0 0.0
2018-Apr-22 01:29N 51°42' E 004°37'0 0.0
2018-Apr-22 00:56N 51°42' E 004°37'0 0.0
2018-Apr-22 00:29N 51°42' E 004°37'0 0.0
2018-Apr-21 23:56N 51°42' E 004°37'0 0.0
2018-Apr-21 23:29N 51°42' E 004°37'0 0.0
2018-Apr-21 22:59N 51°42' E 004°37'0 0.0
2018-Apr-21 22:29N 51°42' E 004°37'0 0.0
2018-Apr-21 21:59N 51°42' E 004°37'0 0.0
2018-Apr-21 21:26N 51°42' E 004°37'0 0.0
2018-Apr-21 20:59N 51°42' E 004°37'0 0.0
2018-Apr-21 20:29N 51°42' E 004°37'0 0.0
2018-Apr-21 19:59N 51°42' E 004°37'0 0.0
2018-Apr-21 19:29N 51°42' E 004°37'0 0.0
2018-Apr-21 18:59N 51°42' E 004°37'0 0.0
2018-Apr-21 18:26N 51°42' E 004°37'0 0.0
2018-Apr-21 17:59N 51°42' E 004°37'0 0.0
2018-Apr-21 17:26N 51°42' E 004°37'0 0.0
2018-Apr-21 16:59N 51°42' E 004°37'0 0.0
2018-Apr-21 16:29N 51°42' E 004°37'0 0.0
2018-Apr-21 15:56N 51°42' E 004°37'0 0.0
2018-Apr-21 15:29N 51°42' E 004°37'0 0.0
2018-Apr-21 14:59N 51°42' E 004°37'0 0.0
2018-Apr-21 14:29N 51°42' E 004°37'0 0.0
2018-Apr-21 13:59N 51°42' E 004°37'0 0.0
2018-Apr-21 13:26N 51°42' E 004°37'0 0.0
2018-Apr-21 12:59N 51°42' E 004°37'0 0.0
2018-Apr-21 12:29N 51°42' E 004°37'0 0.0
2018-Apr-21 11:59N 51°42' E 004°37'0 0.0
2018-Apr-21 11:20N 51°42' E 004°37'0 0.3
2018-Apr-21 10:59N 51°42' E 004°37'0 0.1
2018-Apr-21 10:26N 51°42' E 004°37'0 0.0
2018-Apr-21 09:50N 51°42' E 004°37'0 0.0
2018-Apr-21 09:05N 51°42' E 004°37'0 0.0
2018-Apr-21 08:50N 51°42' E 004°37'0 0.0
2018-Apr-21 08:23N 51°42' E 004°37'0 0.0
2018-Apr-21 07:59N 51°42' E 004°37'0 0.0
2018-Apr-21 07:29N 51°42' E 004°37'0 0.0
2018-Apr-21 06:59N 51°42' E 004°37'0 0.0
2018-Apr-21 06:26N 51°42' E 004°37'0 0.0
2018-Apr-21 05:44N 51°42' E 004°37'0 0.0
2018-Apr-21 05:29N 51°42' E 004°37'0 0.0
2018-Apr-21 04:59N 51°42' E 004°37'0 0.0
2018-Apr-21 03:17N 51°42' E 004°37'0 0.0
2018-Apr-21 02:59N 51°42' E 004°37'0 0.0
2018-Apr-21 01:32N 51°42' E 004°37'0 0.0
2018-Apr-21 01:29N 51°42' E 004°37'0 0.0
2018-Apr-21 00:53N 51°42' E 004°37'0 0.0
2018-Apr-21 00:29N 51°42' E 004°37'0 0.0
2018-Apr-20 23:53N 51°42' E 004°37'0 0.0
2018-Apr-20 23:29N 51°42' E 004°37'0 0.0
2018-Apr-20 22:50N 51°42' E 004°37'0 0.0
2018-Apr-20 22:20N 51°42' E 004°37'0 0.0
2018-Apr-20 21:59N 51°42' E 004°37'0 0.0
2018-Apr-20 21:29N 51°42' E 004°37'0 0.0
2018-Apr-20 20:56N 51°42' E 004°37'0 0.0
2018-Apr-20 20:29N 51°42' E 004°37'0 0.0
2018-Apr-20 19:53N 51°42' E 004°37'0 0.0
2018-Apr-20 19:20N 51°42' E 004°37'0 0.0
2018-Apr-20 18:59N 51°42' E 004°37'0 0.0
2018-Apr-20 18:23N 51°42' E 004°37'0 0.0
2018-Apr-20 17:53N 51°42' E 004°37'0 0.0
2018-Apr-20 17:29N 51°42' E 004°37'0 0.0
2018-Apr-20 16:59N 51°42' E 004°37'0 0.0
2018-Apr-20 16:29N 51°42' E 004°37'0 0.0
2018-Apr-20 15:56N 51°42' E 004°37'0 0.0
2018-Apr-20 15:17N 51°42' E 004°37'0 0.0
2018-Apr-20 14:53N 51°42' E 004°37'0 0.0
2018-Apr-20 14:29N 51°42' E 004°37'0 0.0
2018-Apr-20 13:59N 51°42' E 004°37'1 2.4
2018-Apr-20 13:31N 51°43' E 004°37'4 7.3
2018-Apr-20 13:00N 51°46' E 004°38'3 6.6
2018-Apr-20 12:31N 51°49' E 004°34'3 6.8
2018-Apr-20 12:00N 51°50' E 004°29'4 7.5
2018-Apr-20 11:31N 51°51' E 004°23'3 6.7
2018-Apr-20 11:00N 51°53' E 004°19'3 6.9
2018-Apr-20 10:31N 51°55' E 004°15'3 7.0
2018-Apr-20 10:00N 51°57' E 004°10'3 6.5
2018-Apr-20 09:30N 51°59' E 004°06'4 7.8
2018-Apr-20 09:00N 51°60' E 003°60'4 9.0
2018-Apr-20 08:31N 52°01' E 003°52'3 6.7
2018-Apr-20 08:00N 52°00' E 003°47'3 6.3
2018-Apr-20 07:30N 51°59' E 003°42'12 6.5
2018-Apr-20 05:42N 51°55' E 003°24'7 6.5
2018-Apr-20 04:33N 51°53' E 003°13'3 6.7
2018-Apr-20 04:08N 51°52' E 003°09'2 6.8
2018-Apr-20 03:52N 51°51' E 003°06'3 6.8
2018-Apr-20 03:30N 51°51' E 003°02'9 6.8
2018-Apr-20 02:13N 51°48' E 002°49'1 6.6
2018-Apr-20 01:59N 51°47' E 002°46'3 6.4
2018-Apr-20 01:30N 51°46' E 002°42'4 6.1
2018-Apr-20 00:48N 51°44' E 002°36'2 6.5
2018-Apr-20 00:28N 51°42' E 002°34'4 6.2
2018-Apr-19 23:48N 51°39' E 002°29'2 6.0
2018-Apr-19 23:30N 51°38' E 002°27'3 5.8
2018-Apr-19 22:58N 51°35' E 002°24'3 5.6
2018-Apr-19 22:30N 51°34' E 002°21'3 5.6
2018-Apr-19 22:00N 51°32' E 002°18'3 5.3
2018-Apr-19 21:30N 51°29' E 002°15'3 6.0
2018-Apr-19 21:00N 51°27' E 002°13'3 6.4
2018-Apr-19 20:30N 51°24' E 002°11'3 6.9
2018-Apr-19 20:00N 51°21' E 002°09'4 7.8
2018-Apr-19 19:30N 51°17' E 002°06'4 7.8
2018-Apr-19 19:00N 51°14' E 002°03'4 8.6
2018-Apr-19 18:30N 51°11' E 001°57'5 9.3
2018-Apr-19 17:59N 51°08' E 001°51'5 9.9
2018-Apr-19 17:30N 51°05' E 001°46'810.6
2018-Apr-19 16:47N 50°59' E 001°38'711.2
2018-Apr-19 16:09N 50°54' E 001°30'212.2
2018-Apr-19 16:00N 50°53' E 001°29'712.2
2018-Apr-19 15:24N 50°46' E 001°24'511.6
2018-Apr-19 15:00N 50°41' E 001°22'510.8
2018-Apr-19 14:30N 50°38' E 001°16'610.9
2018-Apr-19 13:59N 50°34' E 001°09'4411.1
2018-Apr-19 09:59N 50°18' E 000°04'511.5
2018-Apr-19 09:30N 50°17' W 000°05'510.4
2018-Apr-19 09:00N 50°15' W 000°12'611.2
2018-Apr-19 08:31N 50°14' W 000°21'510.7
2018-Apr-19 08:01N 50°13' W 000°29'5 9.9
2018-Apr-19 07:30N 50°11' W 000°36'5 9.4
2018-Apr-19 07:01N 50°10' W 000°43'4 8.6
2018-Apr-19 06:30N 50°09' W 000°50'4 8.0
2018-Apr-19 06:01N 50°08' W 000°56'4 7.4
2018-Apr-19 05:30N 50°07' W 001°01'3 6.8
2018-Apr-19 05:00N 50°06' W 001°07'3 6.2
2018-Apr-19 04:30N 50°06' W 001°11'3 6.1
2018-Apr-19 04:00N 50°05' W 001°16'3 5.9
2018-Apr-19 03:30N 50°04' W 001°20'3 5.7
2018-Apr-19 03:00N 50°03' W 001°25'3 6.4
2018-Apr-19 02:30N 50°02' W 001°29'3 7.0
2018-Apr-19 02:00N 50°01' W 001°35'4 7.9
2018-Apr-19 01:30N 50°00' W 001°41'4 8.6
2018-Apr-19 01:00N 49°59' W 001°47'5 9.5
2018-Apr-19 00:30N 49°58' W 001°54'510.4
2018-Apr-19 00:00N 49°57' W 002°02'611.4
2018-Apr-18 23:30N 49°55' W 002°10'611.7
2018-Apr-18 22:59N 49°54' W 002°20'611.9
2018-Apr-18 22:30N 49°52' W 002°28'611.7
2018-Apr-18 21:59N 49°51' W 002°37'611.6
2018-Apr-18 21:30N 49°49' W 002°46'2511.4
2018-Apr-18 19:18N 49°37' W 003°19'311.2
2018-Apr-18 19:00N 49°35' W 003°24'80 8.5
2018-Apr-18 09:38N 48°55' W 005°10'6 7.4
2018-Apr-18 08:53N 48°52' W 005°17'8 8.2
2018-Apr-18 07:59N 48°48' W 005°27'9 8.7
2018-Apr-18 06:59N 48°43' W 005°37'10 9.7
2018-Apr-18 05:58N 48°34' W 005°44'10 9.5
2018-Apr-18 04:59N 48°25' W 005°47'1010.0
2018-Apr-18 03:58N 48°15' W 005°48'1010.0
2018-Apr-18 02:58N 48°05' W 005°49'10 9.9
2018-Apr-18 01:59N 47°55' W 005°49'9 9.5
2018-Apr-18 00:59N 47°46' W 005°50'9 9.1
2018-Apr-17 23:58N 47°37' W 005°50'  

Dump ship's entire track history